Airfield :
LOGIN :

Register | Disclaimer

   EN    FR    IT 

 










Legend :    VFR   Marginal VFR   IFR   Intensive IFR   Very Intensive IFR
Visi :
Ceiling :
>= 8 km
>= 3000ft
5 to 8 km
1000 to 3000 ft
1500m to 5 km
500 to 1000 ft
800 to 1500m
200 to 500 ft
< 800m
< 200 ft
Symbols :   Thunderstorms  Fog  Heavy snow  Heavy precipitations  Wind > 20 kt
SIGMETs :     Misc.  Thunderstorms  Icing  Turbulence  Mountain Waves  Volcanic Ashes






- Airport Elevation : 245 ft
- IATA code : BIQ


LFBZ - Biarritz

CURRENT METAR :
  • 161300Z AUTO 18010KT 130V240 CAVOK 19/03 Q0998 TEMPO 18015G27KT

EXPIRED METARs :
  • 161230Z AUTO 18010G23KT 120V280 CAVOK 19/03 Q0999 NOSIG
  • 161200Z AUTO 19008G19KT 120V290 CAVOK 19/03 Q1000 NOSIG
  • 161130Z AUTO 21005KT 110V280 CAVOK 18/03 Q1000 TEMPO 18015G27KT
  • 161100Z AUTO 24006KT 200V270 CAVOK 18/04 Q1001 TEMPO 18015G27KT
  • 161030Z AUTO 20006KT 170V260 CAVOK 17/04 Q1001 TEMPO 18015G27KT

TAF TAF LFBZ
Valid from the 16 at 12:00 until the 17 at 12:00 UTC


161100Z 1612/1712 19010KT CAVOK
TEMPO 1612/1614 18015G27KT
BECMG 1702/1704 28010KT
BECMG 1704/1706 BKN015
TEMPO 1710/1712 4000 -RA BKN010



MET'MAP, your aeronautical weather chart ! - Copyright ORBIFLY December 2007 - Disclaimer

ORBIFLY MET'MAP TEAM :

Programming & Development : Alexandra Zaïnal
Concept & original design : Baudouin d'Aumeries
Assistance for programming : Marc-Olivier Méhu
Technical & hardware support : Manuel Goepfert

Contact : metmap@orbifly.com




SOURCES & CREDITS :

   NOAA